Time;durP1;ratioP1;P1;durP2;ratioP2;P2;SDS_P1;SDS_P2;PMS_P1;PMS_P2;Temp;Humidity;BMP_temperature;BMP_pressure;BME280_temperature;BME280_humidity;BME280_pressure;Samples;Min_cycle;Max_cycle;Signal;HPM_P1;HPM_P2
2024/01/01 00:02:18;;;;;;;129.73;50.83;;;2.40;99.90;;;;;;5065682;28;20280;-77
2024/01/01 00:05:06;;;;;;;106.00;43.67;;;2.40;99.90;;;;;;5073923;28;20689;-77
2024/01/01 00:07:53;;;;;;;53.67;23.27;;;2.40;99.90;;;;;;5074644;28;20286;-77
2024/01/01 00:10:40;;;;;;;50.80;21.70;;;2.30;99.90;;;;;;5073716;28;20246;-77
2024/01/01 00:13:27;;;;;;;46.53;20.90;;;2.40;99.90;;;;;;5073039;28;20298;-77
2024/01/01 00:16:16;;;;;;;61.60;26.37;;;2.40;99.90;;;;;;5073969;28;20220;-77
2024/01/01 00:19:03;;;;;;;66.13;29.33;;;2.50;99.90;;;;;;5073869;28;20203;-77
2024/01/01 00:21:50;;;;;;;64.00;28.10;;;2.50;99.90;;;;;;5073465;28;20612;-77
2024/01/01 00:24:38;;;;;;;60.43;28.27;;;2.40;99.90;;;;;;5072902;28;20223;-76
2024/01/01 00:27:25;;;;;;;74.37;29.97;;;2.40;99.90;;;;;;5073119;28;20196;-77
2024/01/01 00:30:13;;;;;;;68.90;28.70;;;2.20;99.90;;;;;;5073855;28;20233;-77
2024/01/01 00:33:01;;;;;;;87.77;38.37;;;2.20;99.90;;;;;;5073867;28;20224;-77
2024/01/01 00:35:49;;;;;;;91.47;37.57;;;2.20;99.90;;;;;;5052556;28;20250;-76
2024/01/01 00:38:36;;;;;;;90.10;38.30;;;2.20;99.90;;;;;;5044911;28;20259;-77
2024/01/01 00:41:23;;;;;;;47.97;21.13;;;2.30;99.90;;;;;;5039869;28;20607;-77
2024/01/01 00:44:11;;;;;;;79.13;29.67;;;2.10;99.90;;;;;;5033518;28;20568;-77
2024/01/01 00:46:58;;;;;;;66.37;25.67;;;2.20;99.90;;;;;;5032636;28;20229;-77
2024/01/01 00:49:47;;;;;;;74.87;30.77;;;2.20;99.90;;;;;;5040322;28;20211;-76
2024/01/01 00:52:34;;;;;;;78.83;32.63;;;2.30;99.90;;;;;;5052912;28;20240;-77
2024/01/01 00:55:21;;;;;;;73.67;29.67;;;2.30;99.90;;;;;;5053389;28;20339;-77
2024/01/01 00:58:08;;;;;;;98.20;38.80;;;2.30;99.90;;;;;;5053272;28;20683;-77
2024/01/01 01:00:57;;;;;;;107.70;41.67;;;2.30;99.90;;;;;;5053359;28;20254;-77
2024/01/01 01:03:44;;;;;;;116.40;44.63;;;2.30;99.90;;;;;;5052702;28;20207;-77
2024/01/01 01:06:32;;;;;;;126.57;48.33;;;2.20;99.90;;;;;;5052569;28;20247;-77
2024/01/01 01:09:20;;;;;;;72.30;29.93;;;2.20;99.90;;;;;;5052590;28;20636;-76
2024/01/01 01:12:07;;;;;;;112.17;43.20;;;2.30;99.90;;;;;;5051879;28;20236;-76
2024/01/01 01:14:54;;;;;;;113.07;43.70;;;2.20;99.90;;;;;;5052049;28;20263;-77
2024/01/01 01:17:41;;;;;;;112.37;43.03;;;2.20;99.90;;;;;;5064046;28;20315;-77
2024/01/01 01:20:29;;;;;;;112.43;43.47;;;2.20;99.90;;;;;;5072298;28;20203;-77
2024/01/01 01:23:17;;;;;;;77.43;27.93;;;2.10;99.90;;;;;;5072349;28;20327;-77
2024/01/01 01:26:05;;;;;;;88.27;34.20;;;2.00;99.90;;;;;;5070819;28;20193;-77
2024/01/01 01:28:52;;;;;;;95.07;38.17;;;2.00;99.90;;;;;;5072551;28;20675;-77
2024/01/01 01:31:41;;;;;;;90.73;36.87;;;2.00;99.90;;;;;;5072640;28;20283;-77
2024/01/01 01:34:28;;;;;;;89.60;36.27;;;2.10;99.90;;;;;;5056443;28;20378;-76
2024/01/01 01:37:16;;;;;;;87.70;36.73;;;2.00;99.90;;;;;;5069912;28;20630;-77
2024/01/01 01:40:05;;;;;;;78.97;34.87;;;2.00;99.90;;;;;;5070550;28;20232;-77
2024/01/01 01:42:52;;;;;;;89.83;37.10;;;2.00;99.90;;;;;;5071820;28;20229;-77
2024/01/01 01:45:40;;;;;;;76.93;31.93;;;1.90;99.90;;;;;;5071878;28;20231;-76
2024/01/01 01:48:27;;;;;;;70.57;29.57;;;1.80;99.90;;;;;;5071878;28;20343;-77
2024/01/01 01:51:14;;;;;;;64.77;27.70;;;1.70;99.90;;;;;;5071524;28;20755;-76
2024/01/01 01:54:01;;;;;;;63.47;25.53;;;1.70;99.90;;;;;;5069886;28;20231;-77
2024/01/01 01:56:50;;;;;;;58.27;24.93;;;1.70;99.90;;;;;;5061303;28;20677;-77
2024/01/01 01:59:37;;;;;;;56.50;23.03;;;1.80;99.90;;;;;;5071863;28;20248;-77
2024/01/01 02:02:24;;;;;;;62.10;24.63;;;1.80;99.90;;;;;;5071093;28;20205;-77
2024/01/01 02:05:11;;;;;;;63.43;25.73;;;1.90;99.90;;;;;;5071648;28;20203;-76
2024/01/01 02:07:59;;;;;;;61.77;23.73;;;1.80;99.90;;;;;;5072159;28;20200;-76
2024/01/01 02:10:46;;;;;;;58.03;24.17;;;1.80;99.90;;;;;;5070921;28;20200;-76
2024/01/01 02:13:35;;;;;;;63.47;25.90;;;1.90;99.90;;;;;;5071470;28;20215;-77
2024/01/01 02:16:22;;;;;;;65.03;25.87;;;1.90;99.90;;;;;;5071399;28;20836;-77
2024/01/01 02:19:17;;;;;;;53.73;23.90;;;2.00;99.90;;;;;;5071869;28;20232;-77
2024/01/01 02:22:06;;;;;;;54.70;24.23;;;2.10;99.90;;;;;;5072146;28;20262;-76
2024/01/01 02:24:54;;;;;;;56.77;23.33;;;2.10;99.90;;;;;;5071632;28;20192;-77
2024/01/01 02:27:41;;;;;;;56.50;24.03;;;2.10;99.90;;;;;;5071635;28;20235;-77
2024/01/01 02:30:28;;;;;;;62.77;25.37;;;2.20;99.90;;;;;;5071484;28;20283;-76
2024/01/01 02:33:16;;;;;;;60.07;24.40;;;2.20;99.90;;;;;;5070428;28;20208;-76
2024/01/01 02:36:03;;;;;;;57.90;22.60;;;2.20;99.90;;;;;;5071845;28;20306;-79
2024/01/01 02:38:50;;;;;;;60.10;23.43;;;2.20;99.90;;;;;;5056591;28;20197;-79
2024/01/01 02:41:39;;;;;;;62.50;24.77;;;2.10;99.90;;;;;;5054800;28;20274;-79
2024/01/01 02:44:26;;;;;;;68.17;27.30;;;2.10;99.90;;;;;;5055887;28;20204;-79
2024/01/01 02:47:13;;;;;;;61.43;26.17;;;2.00;99.90;;;;;;5055835;28;20193;-80
2024/01/01 02:50:00;;;;;;;63.00;26.33;;;2.00;99.90;;;;;;5054988;28;20244;-79
2024/01/01 02:52:48;;;;;;;71.87;28.67;;;2.00;99.90;;;;;;5055662;28;20246;-80
2024/01/01 02:55:35;;;;;;;61.90;25.37;;;2.00;99.90;;;;;;5055986;28;20208;-79
2024/01/01 02:58:24;;;;;;;74.83;27.60;;;2.10;99.90;;;;;;5055656;28;20636;-80
2024/01/01 03:01:11;;;;;;;68.30;27.33;;;2.10;99.90;;;;;;5055603;28;20197;-79
2024/01/01 03:03:58;;;;;;;63.43;25.87;;;2.10;99.90;;;;;;5055678;28;20615;-80
2024/01/01 03:06:45;;;;;;;72.23;28.23;;;2.10;99.90;;;;;;5055569;28;20236;-80
2024/01/01 03:09:32;;;;;;;71.83;28.43;;;2.10;99.90;;;;;;5054696;28;20668;-80
2024/01/01 03:12:19;;;;;;;67.90;27.20;;;2.10;99.90;;;;;;5054035;28;20204;-80
2024/01/01 03:15:09;;;;;;;77.87;31.63;;;2.10;99.90;;;;;;5054726;28;20592;-80
2024/01/01 03:17:56;;;;;;;71.60;27.57;;;2.10;99.90;;;;;;5068585;28;20698;-80
2024/01/01 03:20:44;;;;;;;60.90;26.50;;;2.30;99.90;;;;;;5075153;28;20334;-80
2024/01/01 03:23:31;;;;;;;80.13;30.40;;;2.30;99.90;;;;;;5074604;28;20199;-81
2024/01/01 03:26:18;;;;;;;84.63;33.57;;;2.20;99.90;;;;;;5074517;28;20752;-80
2024/01/01 03:29:05;;;;;;;79.97;30.40;;;2.30;99.90;;;;;;5075232;28;20287;-80
2024/01/01 03:31:54;;;;;;;76.00;31.67;;;2.40;99.90;;;;;;5074504;28;20196;-81
2024/01/01 03:34:41;;;;;;;83.17;32.20;;;2.50;99.90;;;;;;5073755;28;20303;-80
2024/01/01 03:37:28;;;;;;;77.60;31.13;;;2.50;99.90;;;;;;5074922;28;20305;-80
2024/01/01 03:40:15;;;;;;;81.13;30.50;;;2.70;99.90;;;;;;5048115;28;20475;-80
2024/01/01 03:43:02;;;;;;;81.63;29.50;;;2.70;99.90;;;;;;5053983;28;20239;-81
2024/01/01 03:45:49;;;;;;;90.20;35.20;;;2.90;99.90;;;;;;5055066;28;20212;-80
2024/01/01 03:48:38;;;;;;;98.50;38.00;;;3.30;99.90;;;;;;5054025;28;20258;-81
2024/01/01 03:51:25;;;;;;;100.83;38.47;;;3.30;99.90;;;;;;5074634;28;20275;-80
2024/01/01 03:54:13;;;;;;;116.57;43.67;;;3.40;99.90;;;;;;5070216;28;20267;-80
2024/01/01 03:57:00;;;;;;;103.60;40.00;;;3.80;99.90;;;;;;5053914;28;20197;-80
2024/01/01 03:59:47;;;;;;;108.90;42.77;;;3.90;99.90;;;;;;5059034;28;20702;-80
2024/01/01 04:02:34;;;;;;;112.00;41.47;;;3.90;99.90;;;;;;5052801;28;20275;-81
2024/01/01 04:05:23;;;;;;;116.63;45.67;;;3.90;99.90;;;;;;5074378;28;20247;-80
2024/01/01 04:08:10;;;;;;;122.10;45.90;;;4.00;99.90;;;;;;5061762;28;20212;-81
2024/01/01 04:10:57;;;;;;;117.90;42.67;;;4.20;99.90;;;;;;5053285;28;20212;-81
2024/01/01 04:13:44;;;;;;;135.50;50.37;;;4.30;99.90;;;;;;5053591;28;20213;-81
2024/01/01 04:16:32;;;;;;;134.03;48.10;;;4.30;99.90;;;;;;5063052;28;20192;-79
2024/01/01 04:19:21;;;;;;;132.10;49.20;;;4.30;99.90;;;;;;5073021;28;20663;-81
2024/01/01 04:22:10;;;;;;;138.40;52.70;;;4.40;99.90;;;;;;5074000;28;20200;-81
2024/01/01 04:24:57;;;;;;;133.57;50.20;;;4.40;99.90;;;;;;5073790;28;20192;-81
2024/01/01 04:27:44;;;;;;;137.07;52.40;;;4.30;99.90;;;;;;5073838;28;20286;-81
2024/01/01 04:30:31;;;;;;;144.07;51.13;;;4.30;99.90;;;;;;5051721;28;20210;-81
2024/01/01 04:33:20;;;;;;;137.10;49.73;;;4.30;99.90;;;;;;5041915;28;20208;-80
2024/01/01 04:36:08;;;;;;;146.57;51.20;;;4.30;99.90;;;;;;5053128;28;20318;-81
2024/01/01 04:38:56;;;;;;;140.87;49.97;;;4.30;99.90;;;;;;5052651;28;20204;-81
2024/01/01 04:41:43;;;;;;;130.27;50.87;;;4.20;99.90;;;;;;5036937;28;20210;-81
2024/01/01 04:44:31;;;;;;;138.47;51.07;;;4.20;99.90;;;;;;5052822;28;20276;-81
2024/01/01 04:47:18;;;;;;;134.23;51.03;;;4.20;99.90;;;;;;5052505;28;20683;-80
2024/01/01 04:50:06;;;;;;;132.90;48.73;;;4.20;99.90;;;;;;5051828;28;20336;-81
2024/01/01 04:52:53;;;;;;;116.50;46.70;;;4.20;99.90;;;;;;5053136;28;20661;-79
2024/01/01 04:55:42;;;;;;;132.97;47.80;;;4.10;99.90;;;;;;5068646;28;20259;-81
2024/01/01 04:58:29;;;;;;;132.77;47.10;;;4.00;99.90;;;;;;5068246;28;20225;-80
2024/01/01 05:01:16;;;;;;;121.57;43.90;;;4.20;99.90;;;;;;5043653;28;20197;-81
2024/01/01 05:04:03;;;;;;;108.53;39.37;;;4.10;99.90;;;;;;5052735;28;20280;-80
2024/01/01 05:06:50;;;;;;;128.20;46.00;;;4.00;99.90;;;;;;5055768;28;20225;-81
2024/01/01 05:09:38;;;;;;;124.37;42.77;;;3.80;99.90;;;;;;5072418;28;20242;-81
2024/01/01 05:12:26;;;;;;;123.73;46.57;;;3.80;99.90;;;;;;5072658;28;20603;-80
2024/01/01 05:15:13;;;;;;;128.93;48.37;;;3.80;99.90;;;;;;5072376;28;20358;-81
2024/01/01 05:18:01;;;;;;;115.40;43.97;;;3.70;99.90;;;;;;5072257;28;20700;-81
2024/01/01 05:20:48;;;;;;;121.67;46.00;;;3.50;99.90;;;;;;5072994;28;20196;-81
2024/01/01 05:23:35;;;;;;;136.67;47.83;;;3.60;99.90;;;;;;5057109;28;20192;-81
2024/01/01 05:26:22;;;;;;;122.87;46.90;;;3.60;99.90;;;;;;5071771;28;20283;-80
2024/01/01 05:29:11;;;;;;;128.07;45.10;;;3.70;99.90;;;;;;5072184;28;20196;-80
2024/01/01 05:31:58;;;;;;;122.60;46.10;;;3.70;99.90;;;;;;5071686;28;20192;-79
2024/01/01 05:34:45;;;;;;;104.47;39.63;;;3.70;99.90;;;;;;5071585;28;20220;-81
2024/01/01 05:37:32;;;;;;;114.97;42.37;;;3.80;99.90;;;;;;5071975;28;20227;-80
2024/01/01 05:40:19;;;;;;;102.43;40.57;;;3.70;99.90;;;;;;5071681;28;20283;-80
2024/01/01 05:43:07;;;;;;;105.17;38.60;;;3.70;99.90;;;;;;5057387;28;20227;-80
2024/01/01 05:45:56;;;;;;;108.30;39.83;;;3.70;99.90;;;;;;5071857;28;20224;-80
2024/01/01 05:48:43;;;;;;;105.63;37.70;;;3.70;99.90;;;;;;5071419;28;20196;-81
2024/01/01 05:51:30;;;;;;;117.60;43.30;;;3.60;99.90;;;;;;5072064;28;20665;-80
2024/01/01 05:54:17;;;;;;;103.20;40.20;;;3.50;99.90;;;;;;5071632;28;20675;-80
2024/01/01 05:57:05;;;;;;;117.70;42.97;;;3.50;99.90;;;;;;5071709;28;20196;-81
2024/01/01 05:59:52;;;;;;;93.73;32.57;;;3.50;99.90;;;;;;5071312;28;20228;-79
2024/01/01 06:02:40;;;;;;;109.40;41.20;;;3.70;99.90;;;;;;5071719;28;20207;-81
2024/01/01 06:05:28;;;;;;;113.57;41.40;;;3.60;99.90;;;;;;5071658;28;20692;-80
2024/01/01 06:08:16;;;;;;;98.60;36.93;;;3.50;99.90;;;;;;5072050;28;20335;-80
2024/01/01 06:11:03;;;;;;;84.97;29.97;;;3.50;99.90;;;;;;5071852;28;20197;-80
2024/01/01 06:13:50;;;;;;;88.97;33.73;;;3.70;99.90;;;;;;5072339;28;20269;-81
2024/01/01 06:16:37;;;;;;;83.97;32.93;;;3.80;99.90;;;;;;5071055;28;20336;-81
2024/01/01 06:19:26;;;;;;;86.97;33.93;;;3.80;99.90;;;;;;5071496;28;20240;-80
2024/01/01 06:22:13;;;;;;;83.20;34.17;;;3.70;99.90;;;;;;5070802;28;20398;-81
2024/01/01 06:25:00;;;;;;;95.67;34.97;;;3.70;99.90;;;;;;5071567;28;20203;-81
2024/01/01 06:27:47;;;;;;;90.97;34.17;;;3.70;99.90;;;;;;5071631;28;20286;-81
2024/01/01 06:30:34;;;;;;;81.60;32.87;;;3.70;99.90;;;;;;5071998;28;20611;-81
2024/01/01 06:33:22;;;;;;;88.03;34.30;;;3.70;99.90;;;;;;5071992;28;20192;-82
2024/01/01 06:36:11;;;;;;;86.17;33.40;;;3.70;99.90;;;;;;5071730;28;20220;-81
2024/01/01 06:38:58;;;;;;;91.77;34.07;;;3.70;99.90;;;;;;5071942;28;20286;-81
2024/01/01 06:41:45;;;;;;;101.37;35.97;;;3.60;99.90;;;;;;5069370;28;20556;-80
2024/01/01 06:44:32;;;;;;;51.40;18.90;;;3.60;99.90;;;;;;5068280;28;20234;-81
2024/01/01 06:47:22;;;;;;;139.70;50.73;;;3.60;99.90;;;;;;5070805;28;20200;-81
2024/01/01 06:50:09;;;;;;;108.63;41.90;;;3.50;99.90;;;;;;5070495;28;20208;-81
2024/01/01 06:52:58;;;;;;;175.57;62.47;;;3.40;99.90;;;;;;5070680;28;20201;-80
2024/01/01 06:55:45;;;;;;;182.30;65.47;;;3.30;99.90;;;;;;5070658;28;20263;-81
2024/01/01 06:58:33;;;;;;;203.20;72.47;;;3.20;99.90;;;;;;5071768;28;20671;-80
2024/01/01 07:01:20;;;;;;;113.00;41.77;;;3.20;99.90;;;;;;5071790;28;20204;-80
2024/01/01 07:04:07;;;;;;;193.40;72.90;;;3.20;99.90;;;;;;5071670;28;20636;-79
2024/01/01 07:06:56;;;;;;;187.43;69.47;;;3.10;99.90;;;;;;5070165;28;20333;-79
2024/01/01 07:09:44;;;;;;;197.70;72.50;;;3.10;99.90;;;;;;5071742;28;20249;-79
2024/01/01 07:12:32;;;;;;;163.70;58.83;;;3.00;99.90;;;;;;5071739;28;20205;-79
2024/01/01 07:15:19;;;;;;;199.30;76.47;;;3.10;99.90;;;;;;5070542;28;20585;-79
2024/01/01 07:18:07;;;;;;;213.63;74.10;;;3.00;99.90;;;;;;5071299;28;20311;-79
2024/01/01 07:20:54;;;;;;;210.27;77.53;;;3.00;99.90;;;;;;5070697;28;20197;-78
2024/01/01 07:23:41;;;;;;;181.17;64.13;;;3.00;99.90;;;;;;5073453;28;20281;-79
2024/01/01 07:26:30;;;;;;;238.40;86.10;;;3.00;99.90;;;;;;5075309;28;20685;-78
2024/01/01 07:29:17;;;;;;;227.97;78.30;;;3.00;99.90;;;;;;5074823;28;20395;-79
2024/01/01 07:32:05;;;;;;;249.57;83.23;;;3.00;99.90;;;;;;5075103;28;20207;-78
2024/01/01 07:34:52;;;;;;;214.10;76.47;;;3.00;99.90;;;;;;5074137;28;20216;-78
2024/01/01 07:37:39;;;;;;;227.87;80.63;;;3.10;99.90;;;;;;5075110;28;20319;-78
2024/01/01 07:40:26;;;;;;;184.40;68.80;;;3.10;99.90;;;;;;5074832;28;20242;-79
2024/01/01 07:43:15;;;;;;;176.77;65.80;;;3.10;99.90;;;;;;5069984;28;20201;-78
2024/01/01 07:46:03;;;;;;;172.17;62.20;;;3.20;99.90;;;;;;5074775;28;20224;-78
2024/01/01 07:48:50;;;;;;;181.13;66.87;;;3.20;99.90;;;;;;5074370;28;20193;-77
2024/01/01 07:51:37;;;;;;;151.50;57.57;;;3.10;99.90;;;;;;5074214;28;20239;-78
2024/01/01 07:54:26;;;;;;;162.93;60.07;;;3.20;99.90;;;;;;5073298;28;20224;-78
2024/01/01 07:57:13;;;;;;;149.43;56.67;;;3.20;99.90;;;;;;5074668;28;20274;-78
2024/01/01 08:00:02;;;;;;;152.47;56.50;;;3.20;99.90;;;;;;5073000;28;20246;-78
2024/01/01 08:02:49;;;;;;;128.60;48.17;;;3.20;99.90;;;;;;5074044;28;20204;-78
2024/01/01 08:05:36;;;;;;;123.13;49.60;;;3.30;99.90;;;;;;5074474;28;20275;-78
2024/01/01 08:08:24;;;;;;;111.90;43.23;;;3.20;99.90;;;;;;5074190;28;20656;-79
2024/01/01 08:11:11;;;;;;;120.20;48.17;;;3.30;99.90;;;;;;5074453;28;20199;-79
2024/01/01 08:13:58;;;;;;;115.03;45.73;;;3.20;99.90;;;;;;5074211;28;20251;-79
2024/01/01 08:16:46;;;;;;;111.40;43.80;;;3.20;99.90;;;;;;5074078;28;20232;-78
2024/01/01 08:19:33;;;;;;;111.67;43.73;;;3.20;99.90;;;;;;5074163;28;20350;-79
2024/01/01 08:22:21;;;;;;;103.73;38.47;;;3.30;99.90;;;;;;5074120;28;20286;-78
2024/01/01 08:25:09;;;;;;;76.10;32.23;;;3.30;99.90;;;;;;5074019;28;20254;-78
2024/01/01 08:27:56;;;;;;;77.30;33.60;;;3.30;99.90;;;;;;5072429;28;20584;-78
2024/01/01 08:30:44;;;;;;;67.73;26.07;;;3.20;99.90;;;;;;5073982;28;20253;-78
2024/01/01 08:33:32;;;;;;;66.77;27.00;;;3.20;99.90;;;;;;5073322;28;20664;-78
2024/01/01 08:36:20;;;;;;;69.50;25.87;;;3.20;99.90;;;;;;5072444;28;20642;-78
2024/01/01 08:39:09;;;;;;;55.67;21.83;;;3.20;99.90;;;;;;5073265;28;20219;-78
2024/01/01 08:41:56;;;;;;;42.07;16.87;;;3.20;99.90;;;;;;5073884;28;20200;-78
2024/01/01 08:44:43;;;;;;;49.67;20.33;;;3.20;99.90;;;;;;5058572;28;20201;-78
2024/01/01 08:47:31;;;;;;;49.97;21.00;;;3.00;99.90;;;;;;5069415;28;20322;-77
2024/01/01 08:50:19;;;;;;;46.13;17.40;;;3.10;99.90;;;;;;5073068;28;20196;-78
2024/01/01 08:53:07;;;;;;;33.30;15.63;;;3.00;99.90;;;;;;5072301;28;20221;-78
2024/01/01 08:55:54;;;;;;;29.57;14.07;;;3.00;99.90;;;;;;5072784;28;20818;-77
2024/01/01 08:58:41;;;;;;;25.17;9.60;;;2.90;99.90;;;;;;5072508;28;20287;-78
2024/01/01 09:01:28;;;;;;;26.50;9.90;;;2.80;99.90;;;;;;5072872;28;20239;-78
2024/01/01 09:04:17;;;;;;;27.93;9.80;;;2.90;99.90;;;;;;5073072;28;20204;-78
2024/01/01 09:07:06;;;;;;;21.00;9.00;;;2.80;99.90;;;;;;5072108;28;20189;-78
2024/01/01 09:09:53;;;;;;;19.50;9.07;;;2.80;99.90;;;;;;5072782;28;20684;-78
2024/01/01 09:12:40;;;;;;;20.77;8.30;;;2.70;99.90;;;;;;5072651;28;20683;-78
2024/01/01 09:15:27;;;;;;;19.13;8.10;;;2.70;99.90;;;;;;5071718;28;20208;-78
2024/01/01 09:18:15;;;;;;;18.20;8.13;;;2.80;99.90;;;;;;5072282;28;20261;-78
2024/01/01 09:21:02;;;;;;;16.87;8.20;;;2.70;99.90;;;;;;5072376;28;20323;-77
2024/01/01 09:23:50;;;;;;;18.27;8.03;;;2.70;99.90;;;;;;5072590;28;20309;-78
2024/01/01 09:26:38;;;;;;;18.90;8.03;;;2.70;99.90;;;;;;5072351;28;20196;-77
2024/01/01 09:29:25;;;;;;;20.17;8.93;;;2.60;99.90;;;;;;5071703;28;20581;-78
2024/01/01 09:32:13;;;;;;;15.97;7.47;;;2.60;99.90;;;;;;5071435;28;20192;-78
2024/01/01 09:35:00;;;;;;;18.27;7.43;;;2.60;99.90;;;;;;5072156;28;20220;-77
2024/01/01 09:37:52;;;;;;;12.97;6.53;;;2.50;99.90;;;;;;5071956;28;20245;-78
2024/01/01 09:40:41;;;;;;;12.43;5.30;;;2.40;99.90;;;;;;5072143;28;20690;-76
2024/01/01 09:43:28;;;;;;;12.20;5.70;;;2.30;99.90;;;;;;5071891;28;20192;-77
2024/01/01 09:46:17;;;;;;;11.70;5.63;;;2.20;99.90;;;;;;5058740;28;20677;-77
2024/01/01 09:49:04;;;;;;;10.40;4.97;;;2.00;99.90;;;;;;5068797;28;20577;-77
2024/01/01 09:51:52;;;;;;;12.53;5.47;;;1.90;99.90;;;;;;5072651;28;20211;-77
2024/01/01 09:54:39;;;;;;;11.33;5.27;;;1.70;99.90;;;;;;5071413;28;20647;-78
2024/01/01 09:57:27;;;;;;;8.67;4.50;;;1.60;99.90;;;;;;5058966;28;20197;-78
2024/01/01 10:00:21;;;;;;;9.63;4.50;;;1.50;99.90;;;;;;5070677;28;20283;-78
2024/01/01 10:03:10;;;;;;;10.87;4.90;;;1.30;99.90;;;;;;5061449;28;20334;-78
2024/01/01 10:05:59;;;;;;;8.67;4.70;;;1.30;99.90;;;;;;5070306;28;20207;-79
2024/01/01 10:08:46;;;;;;;7.97;4.00;;;1.30;99.90;;;;;;5071488;28;20785;-78
2024/01/01 10:11:33;;;;;;;6.60;4.17;;;1.20;99.90;;;;;;5071760;28;20196;-78
2024/01/01 10:14:22;;;;;;;8.67;3.80;;;1.10;99.90;;;;;;5071640;28;20204;-78
2024/01/01 10:17:12;;;;;;;3.07;1.90;;;1.00;99.90;;;;;;5071505;28;20358;-78
2024/01/01 10:20:01;;;;;;;7.37;3.90;;;1.00;99.90;;;;;;5071476;28;20564;-77
2024/01/01 10:22:48;;;;;;;9.00;4.30;;;1.00;99.90;;;;;;5070962;28;20197;-78
2024/01/01 10:25:35;;;;;;;10.83;4.47;;;1.00;99.90;;;;;;5071367;28;20200;-78
2024/01/01 10:28:24;;;;;;;9.57;4.60;;;1.00;99.90;;;;;;5071499;28;20200;-77
2024/01/01 10:31:14;;;;;;;8.47;4.40;;;0.90;99.90;;;;;;5071605;28;20212;-78
2024/01/01 10:34:03;;;;;;;5.60;3.17;;;0.90;99.90;;;;;;5071954;28;20270;-78
2024/01/01 10:36:50;;;;;;;8.90;4.70;;;1.00;99.90;;;;;;5071341;28;20225;-77
2024/01/01 10:39:37;;;;;;;8.23;4.57;;;0.90;99.90;;;;;;5071497;28;20279;-78
2024/01/01 10:42:30;;;;;;;10.73;5.43;;;0.80;99.90;;;;;;5071412;28;20262;-78
2024/01/01 10:45:18;;;;;;;1.93;1.47;;;0.90;99.90;;;;;;5066618;28;20204;-77
2024/01/01 10:48:07;;;;;;;9.27;4.10;;;0.90;99.90;;;;;;5056711;28;20204;-78
2024/01/01 10:51:00;;;;;;;13.97;7.50;;;0.80;99.90;;;;;;5070800;28;20204;-78
2024/01/01 10:53:58;;;;;;;14.23;6.67;;;0.90;99.90;;;;;;5071136;28;20275;-78
2024/01/01 10:56:49;;;;;;;9.27;4.83;;;0.90;99.90;;;;;;5071908;28;20216;-78
2024/01/01 10:59:40;;;;;;;13.13;7.50;;;0.90;99.90;;;;;;5075016;28;20204;-78
2024/01/01 11:02:27;;;;;;;13.70;7.90;;;0.90;99.90;;;;;;5073965;28;20201;-79
2024/01/01 11:05:16;;;;;;;14.60;7.40;;;0.90;99.90;;;;;;5054168;28;20276;-78
2024/01/01 11:08:04;;;;;;;13.97;6.87;;;0.90;99.90;;;;;;5072112;28;20221;-78
2024/01/01 11:10:51;;;;;;;13.33;6.20;;;0.90;99.90;;;;;;5075823;28;20219;-78
2024/01/01 11:13:54;;;;;;;13.03;5.77;;;0.90;99.90;;;;;;5074357;28;20290;-78
2024/01/01 11:16:51;;;;;;;8.53;3.87;;;1.00;99.90;;;;;;5074628;28;20232;-79
2024/01/01 11:19:42;;;;;;;12.13;5.90;;;1.00;99.90;;;;;;5074603;28;20232;-78
2024/01/01 11:22:39;;;;;;;5.10;2.27;;;0.90;99.90;;;;;;5075276;28;20278;-79
2024/01/01 11:25:29;;;;;;;8.57;3.83;;;0.90;99.90;;;;;;5075165;28;20196;-77
2024/01/01 11:28:38;;;;;;;12.53;6.93;;;0.80;99.90;;;;;;5074524;28;20577;-79
2024/01/01 11:31:25;;;;;;;13.97;7.43;;;0.90;99.90;;;;;;5075498;28;20678;-78
2024/01/01 11:34:16;;;;;;;6.07;2.97;;;0.80;99.90;;;;;;5074352;28;20670;-78
2024/01/01 11:37:03;;;;;;;17.57;7.97;;;0.80;99.90;;;;;;5074321;28;20910;-78
2024/01/01 11:40:02;;;;;;;15.77;7.07;;;0.70;99.90;;;;;;5074004;28;20282;-79
2024/01/01 11:42:52;;;;;;;14.20;6.63;;;0.80;99.90;;;;;;5066056;28;20193;-79
2024/01/01 11:45:39;;;;;;;14.07;5.13;;;0.70;99.90;;;;;;5072593;28;20279;-79
2024/01/01 11:48:26;;;;;;;14.80;7.03;;;0.70;99.90;;;;;;5059136;28;20244;-78
2024/01/01 11:51:14;;;;;;;16.67;8.30;;;0.80;99.90;;;;;;5054714;28;20197;-79
2024/01/01 11:54:08;;;;;;;19.03;8.67;;;0.80;99.90;;;;;;5056434;28;20291;-78
2024/01/01 11:56:57;;;;;;;20.30;8.90;;;0.80;99.90;;;;;;5074001;28;20216;-78
2024/01/01 11:59:44;;;;;;;7.43;3.60;;;0.70;99.90;;;;;;5073571;28;20197;-78
2024/01/01 12:02:32;;;;;;;23.20;10.40;;;0.80;99.90;;;;;;5073874;28;20280;-78
2024/01/01 12:05:19;;;;;;;20.77;10.03;;;0.70;99.90;;;;;;5073473;28;20205;-79
2024/01/01 12:08:12;;;;;;;22.60;11.17;;;0.80;99.90;;;;;;5074227;28;20198;-78
2024/01/01 12:11:00;;;;;;;30.23;14.20;;;0.80;99.90;;;;;;5073410;28;20193;-77
2024/01/01 12:13:57;;;;;;;29.23;13.33;;;0.80;99.90;;;;;;5074367;28;20282;-77
2024/01/01 12:16:44;;;;;;;366.63;27.03;;;0.70;99.90;;;;;;5074070;28;20284;-78
2024/01/01 12:19:31;;;;;;;33.67;11.13;;;0.80;99.90;;;;;;5073789;28;20203;-79
2024/01/01 12:22:24;;;;;;;85.03;11.90;;;0.90;99.90;;;;;;5073636;28;20321;-78
2024/01/01 12:25:17;;;;;;;159.13;15.53;;;0.80;99.90;;;;;;5074306;28;20193;-78
2024/01/01 12:28:04;;;;;;;99.43;14.23;;;0.70;99.90;;;;;;5072755;28;20279;-78
2024/01/01 12:30:53;;;;;;;178.57;15.37;;;0.80;99.90;;;;;;5073432;28;20623;-78
2024/01/01 12:33:50;;;;;;;131.83;11.20;;;0.70;99.90;;;;;;5074114;28;20203;-79
2024/01/01 12:36:37;;;;;;;296.43;21.00;;;0.70;99.90;;;;;;5073099;28;20235;-78
2024/01/01 12:39:25;;;;;;;174.80;17.60;;;0.70;99.90;;;;;;5073916;28;20212;-78
2024/01/01 12:42:12;;;;;;;58.80;10.10;;;0.80;99.90;;;;;;5073292;28;20338;-77
2024/01/01 12:44:59;;;;;;;197.87;18.67;;;0.80;99.90;;;;;;5073265;28;20204;-78
2024/01/01 12:47:48;;;;;;;461.40;23.93;;;0.80;99.90;;;;;;5071830;28;20232;-77
2024/01/01 12:50:35;;;;;;;351.17;23.90;;;0.80;99.90;;;;;;5062401;28;20276;-78
2024/01/01 12:53:22;;;;;;;151.50;19.40;;;0.80;99.90;;;;;;5072958;28;20235;-78
2024/01/01 12:56:10;;;;;;;254.00;22.77;;;0.90;99.90;;;;;;5058382;28;20686;-78
2024/01/01 12:58:57;;;;;;;701.63;38.67;;;0.80;99.90;;;;;;5072243;28;20338;-79
2024/01/01 13:01:44;;;;;;;134.80;21.97;;;0.80;99.90;;;;;;5073626;28;20196;-77
2024/01/01 13:04:33;;;;;;;83.97;9.53;;;0.90;99.90;;;;;;5072728;28;20200;-79
2024/01/01 13:07:20;;;;;;;161.23;23.23;;;1.00;99.90;;;;;;5073097;28;20243;-78
2024/01/01 13:10:09;;;;;;;381.63;26.93;;;1.00;99.90;;;;;;5072734;28;20278;-78
2024/01/01 13:12:56;;;;;;;508.43;31.17;;;1.10;99.90;;;;;;5059868;28;20192;-77
2024/01/01 13:15:45;;;;;;;490.67;29.53;;;1.00;99.90;;;;;;5072349;28;20224;-79
2024/01/01 13:18:32;;;;;;;266.87;23.20;;;1.10;99.90;;;;;;5053363;28;20255;-78
2024/01/01 13:21:21;;;;;;;578.40;31.50;;;1.10;99.90;;;;;;5049628;28;20201;-78
2024/01/01 13:24:08;;;;;;;605.83;35.17;;;1.10;99.90;;;;;;5048359;28;20205;-78
2024/01/01 13:26:57;;;;;;;578.20;33.60;;;1.10;99.90;;;;;;5057256;28;20189;-76
2024/01/01 13:29:44;;;;;;;282.60;27.63;;;1.20;99.90;;;;;;5049641;28;20209;-79
2024/01/01 13:32:31;;;;;;;442.20;32.53;;;1.20;99.90;;;;;;5050922;28;20594;-82
2024/01/01 13:35:19;;;;;;;468.87;34.77;;;1.20;99.90;;;;;;5047454;28;20331;-84
2024/01/01 13:38:07;;;;;;;853.63;51.20;;;1.30;99.90;;;;;;5049114;28;20209;-77
2024/01/01 13:40:55;;;;;;;605.33;41.17;;;1.30;99.90;;;;;;5049568;28;20565;-82
2024/01/01 13:43:42;;;;;;;427.60;35.07;;;1.40;99.90;;;;;;5045332;28;20202;-80
2024/01/01 13:46:29;;;;;;;829.03;47.23;;;1.40;99.90;;;;;;5050659;28;20197;-78
2024/01/01 13:49:17;;;;;;;523.33;36.40;;;1.40;99.90;;;;;;5038330;28;20200;-80
2024/01/01 13:52:04;;;;;;;665.67;44.17;;;1.40;99.90;;;;;;5043225;28;20570;-83
2024/01/01 13:54:53;;;;;;;658.00;45.57;;;1.50;99.90;;;;;;5045117;28;20362;-83
2024/01/01 13:57:40;;;;;;;512.63;39.63;;;1.60;99.90;;;;;;5047408;28;20225;-85
2024/01/01 14:00:28;;;;;;;471.40;37.80;;;1.70;99.90;;;;;;5049256;28;20676;-81
2024/01/01 14:03:18;;;;;;;413.23;35.43;;;1.80;99.90;;;;;;5035931;28;20224;-83
2024/01/01 14:06:06;;;;;;;630.40;44.00;;;1.80;99.90;;;;;;5044638;28;20212;-80
2024/01/01 14:08:53;;;;;;;87.70;15.57;;;1.90;99.90;;;;;;5033422;28;20205;-82
2024/01/01 14:11:47;;;;;;;447.83;33.40;;;1.90;99.90;;;;;;5047990;28;20234;-83
2024/01/01 14:14:34;;;;;;;513.10;36.70;;;2.00;99.90;;;;;;5048010;28;20286;-82
2024/01/01 14:17:21;;;;;;;143.57;27.10;;;2.00;99.90;;;;;;5046923;28;20310;-84
2024/01/01 14:20:11;;;;;;;184.83;28.63;;;2.00;99.90;;;;;;5085600;28;20200;-80
2024/01/01 14:22:59;;;;;;;237.47;29.03;;;2.20;99.90;;;;;;5071784;28;20193;-84